Time;durP1;ratioP1;P1;durP2;ratioP2;P2;SDS_P1;SDS_P2;PMS_P1;PMS_P2;Temp;Humidity;BMP_temperature;BMP_pressure;BME280_temperature;BME280_humidity;BME280_pressure;Samples;Min_cycle;Max_cycle;Signal;HPM_P1;HPM_P2
2021/12/06 00:00:30;;;;;;;;;;;-17.80;99.90;;;;;;4935860;29;19930;-85
2021/12/06 00:03:04;;;;;;;;;;;-17.50;99.90;;;;;;4953721;28;20409;-86
2021/12/06 00:05:32;;;;;;;;;;;-19.00;99.90;;;;;;4939251;28;19977;-86
2021/12/06 00:08:00;;;;;;;;;;;-17.80;99.90;;;;;;4952436;29;19984;-86
2021/12/06 00:10:27;;;;;;;;;;;-17.80;99.90;;;;;;4951547;29;19934;-88
2021/12/06 00:12:54;;;;;;;;;;;-18.00;99.90;;;;;;4953879;28;19930;-86
2021/12/06 00:15:21;;;;;;;;;;;-17.90;99.90;;;;;;4952766;29;20036;-88
2021/12/06 00:17:48;;;;;;;;;;;-17.90;99.90;;;;;;4953753;28;19938;-82
2021/12/06 00:20:17;;;;;;;;;;;-17.90;99.90;;;;;;4969188;28;19930;-86
2021/12/06 00:22:44;;;;;;;;;;;-17.80;99.90;;;;;;4952945;29;19993;-86
2021/12/06 00:25:13;;;;;;;;;;;-17.60;99.90;;;;;;4953711;29;19937;-88
2021/12/06 00:27:40;;;;;;;;;;;-19.20;99.90;;;;;;4936389;29;19937;-86
2021/12/06 00:30:12;;;;;;;;;;;-17.30;99.90;;;;;;4953989;29;19965;-86
2021/12/06 00:32:41;;;;;;;;;;;-18.00;99.90;;;;;;4936624;29;19937;-86
2021/12/06 00:35:12;;;;;;;;;;;-18.00;99.90;;;;;;4953617;28;20025;-87
2021/12/06 00:37:52;;;;;;;;;;;-17.80;99.90;;;;;;4951851;29;19969;-88
2021/12/06 00:40:20;;;;;;;;;;;-17.50;99.90;;;;;;4952081;29;19985;-85
2021/12/06 00:42:47;;;;;;;;;;;-17.90;99.90;;;;;;4952522;29;19930;-86
2021/12/06 00:45:15;;;;;;;;;;;-18.30;99.90;;;;;;4951531;28;20311;-86
2021/12/06 00:47:42;;;;;;;;;;;-19.40;99.90;;;;;;4935970;29;19943;-86
2021/12/06 00:50:10;;;;;;;;;;;-18.10;99.90;;;;;;4955021;28;19930;-86
2021/12/06 00:52:37;;;;;;;;;;;-16.90;99.90;;;;;;4954160;29;20456;-86
2021/12/06 00:55:10;;;;;;;;;;;-18.60;99.90;;;;;;4950400;28;19974;-86
2021/12/06 00:57:38;;;;;;;;;;;-18.60;99.90;;;;;;4953613;28;20021;-86
2021/12/06 01:00:08;;;;;;;;;;;-19.30;99.90;;;;;;4936166;29;20045;-86
2021/12/06 01:02:36;;;;;;;;;;;-19.40;99.90;;;;;;4954062;28;19938;-86
2021/12/06 01:05:04;;;;;;;;;;;-17.90;99.90;;;;;;4951253;29;19989;-87
2021/12/06 01:07:31;;;;;;;;;;;-18.70;99.90;;;;;;4951667;28;19978;-87
2021/12/06 01:09:59;;;;;;;;;;;-18.00;99.90;;;;;;4951584;29;20034;-87
2021/12/06 01:12:27;;;;;;;;;;;-18.20;99.90;;;;;;4933348;29;19938;-86
2021/12/06 01:14:55;;;;;;;;;;;-18.00;99.90;;;;;;4935556;29;19938;-87
2021/12/06 01:17:22;;;;;;;;;;;-18.00;99.90;;;;;;4935275;29;19937;-87
2021/12/06 01:19:51;;;;;;;;;;;-18.60;99.90;;;;;;4935164;29;19931;-87
2021/12/06 01:22:25;;;;;;;;;;;-18.60;99.90;;;;;;4950877;29;19930;-87
2021/12/06 01:24:57;;;;;;;;;;;-18.80;99.90;;;;;;4951897;29;19961;-86
2021/12/06 01:27:48;;;;;;;;;;;-18.30;99.90;;;;;;4935759;29;19934;-86
2021/12/06 01:33:27;;;;;;;;;;;-18.50;99.90;;;;;;4934988;29;19930;-86
2021/12/06 01:41:26;;;;;;;;;;;-17.80;99.90;;;;;;4950656;28;19934;-88
2021/12/06 01:44:09;;;;;;;;;;;-18.30;99.90;;;;;;4950919;29;19930;-86
2021/12/06 01:46:41;;;;;;;;;;;-18.90;99.90;;;;;;4935327;29;19938;-87
2021/12/06 01:49:09;;;;;;;;;;;-18.70;99.90;;;;;;4950918;29;20083;-86
2021/12/06 01:51:37;;;;;;;;;;;-18.20;99.90;;;;;;4950994;29;20020;-88
2021/12/06 01:54:06;;;;;;;;;;;-18.80;99.90;;;;;;4962244;28;19930;-87
2021/12/06 01:56:33;;;;;;;;;;;-18.90;99.90;;;;;;4951653;28;19958;-87
2021/12/06 01:59:01;;;;;;;;;;;-18.60;99.90;;;;;;4934705;29;19930;-87
2021/12/06 02:01:31;;;;;;;;;;;-18.80;99.90;;;;;;4951647;29;20458;-88
2021/12/06 02:03:59;;;;;;;;;;;-18.50;99.90;;;;;;4951432;29;19937;-87
2021/12/06 02:06:27;;;;;;;;;;;-18.80;99.90;;;;;;4952432;28;20414;-87
2021/12/06 02:08:54;;;;;;;;;;;-18.70;99.90;;;;;;4955125;29;20297;-87
2021/12/06 02:11:25;;;;;;;;;;;-18.70;99.90;;;;;;4939279;29;19930;-86
2021/12/06 02:14:00;;;;;;;;;;;-18.10;99.90;;;;;;4939365;29;19963;-86
2021/12/06 02:16:36;;;;;;;;;;;-20.20;99.90;;;;;;4955706;29;19965;-85
2021/12/06 02:19:06;;;;;;;;;;;-19.00;99.90;;;;;;4939199;29;20026;-86
2021/12/06 02:21:39;;;;;;;;;;;-18.70;99.90;;;;;;4954985;28;19961;-85
2021/12/06 02:24:09;;;;;;;;;;;-18.90;99.90;;;;;;4954744;29;19935;-87
2021/12/06 02:26:39;;;;;;;;;;;-19.30;99.90;;;;;;4954099;29;20025;-87
2021/12/06 02:29:06;;;;;;;;;;;-19.00;99.90;;;;;;4939421;29;19931;-86
2021/12/06 02:31:37;;;;;;;;;;;-18.70;99.90;;;;;;4954812;29;20406;-88
2021/12/06 02:34:05;;;;;;;;;;;-17.90;99.90;;;;;;4954089;29;19965;-88
2021/12/06 02:36:33;;;;;;;;;;;-18.50;99.90;;;;;;4955514;28;19966;-86
2021/12/06 02:39:03;;;;;;;;;;;-19.20;99.90;;;;;;4938734;29;20378;-85
2021/12/06 02:41:33;;;;;;;;;;;-19.30;99.90;;;;;;4954752;28;19934;-86
2021/12/06 02:44:01;;;;;;;;;;;-19.20;99.90;;;;;;4937398;29;19931;-85
2021/12/06 02:46:28;;;;;;;;;;;-18.90;99.90;;;;;;4954686;28;19931;-84
2021/12/06 02:48:55;;;;;;;;;;;-18.90;99.90;;;;;;4938266;29;19981;-87
2021/12/06 02:51:25;;;;;;;;;;;-19.20;99.90;;;;;;4953814;28;20021;-86
2021/12/06 02:53:53;;;;;;;;;;;-19.20;99.90;;;;;;4937525;29;20387;-85
2021/12/06 02:56:30;;;;;;;;;;;-19.30;99.90;;;;;;4955165;28;19986;-86
2021/12/06 02:59:04;;;;;;;;;;;-18.90;99.90;;;;;;4934312;29;19938;-85
2021/12/06 03:01:34;;;;;;;;;;;-19.90;99.90;;;;;;4941701;29;19969;-87
2021/12/06 03:04:06;;;;;;;;;;;-18.90;99.90;;;;;;4953841;29;20359;-85
2021/12/06 03:06:35;;;;;;;;;;;-18.90;99.90;;;;;;4938286;29;19930;-87
2021/12/06 03:09:07;;;;;;;;;;;-19.50;99.90;;;;;;4938372;29;19938;-87
2021/12/06 03:11:38;;;;;;;;;;;-19.10;99.90;;;;;;4953770;28;19937;-86
2021/12/06 03:14:07;;;;;;;;;;;-18.90;99.90;;;;;;4954606;29;19942;-86
2021/12/06 03:16:35;;;;;;;;;;;-19.50;99.90;;;;;;4937662;29;19930;-86
2021/12/06 03:19:04;;;;;;;;;;;-19.40;99.90;;;;;;4952303;28;19937;-86
2021/12/06 03:21:32;;;;;;;;;;;-19.30;99.90;;;;;;4954004;29;19931;-86
2021/12/06 03:24:01;;;;;;;;;;;-19.40;99.90;;;;;;4953624;29;20441;-85
2021/12/06 03:26:30;;;;;;;;;;;-19.30;99.90;;;;;;4937690;29;19934;-88
2021/12/06 03:28:58;;;;;;;;;;;-18.80;99.90;;;;;;4952206;29;19934;-84
2021/12/06 03:31:27;;;;;;;;;;;-19.00;99.90;;;;;;4937240;29;20356;-88
2021/12/06 03:33:57;;;;;;;;;;;-19.20;99.90;;;;;;4953712;29;19934;-88
2021/12/06 03:36:26;;;;;;;;;;;-19.70;99.90;;;;;;4937341;29;20377;-85
2021/12/06 03:38:55;;;;;;;;;;;-19.50;99.90;;;;;;4935734;29;20453;-86
2021/12/06 03:41:24;;;;;;;;;;;-19.30;99.90;;;;;;4936615;29;20358;-86
2021/12/06 03:43:53;;;;;;;;;;;-18.90;99.90;;;;;;4953381;29;19931;-87
2021/12/06 03:46:24;;;;;;;;;;;-19.20;99.90;;;;;;4953408;28;19937;-85
2021/12/06 03:48:52;;;;;;;;;;;-19.30;99.90;;;;;;4954563;28;20280;-86
2021/12/06 03:51:20;;;;;;;;;;;-18.90;99.90;;;;;;4953975;28;19931;-89
2021/12/06 03:53:48;;;;;;;;;;;-19.30;99.90;;;;;;4954447;28;19930;-86
2021/12/06 03:56:16;;;;;;;;;;;-19.20;99.90;;;;;;4952472;28;20005;-89
2021/12/06 03:58:47;;;;;;;;;;;-18.70;99.90;;;;;;4953243;29;20032;-89
2021/12/06 04:01:14;;;;;;;;;;;-19.90;99.90;;;;;;4952632;29;19930;-88
2021/12/06 04:03:44;;;;;;;;;;;-19.30;99.90;;;;;;4952955;29;20458;-85
2021/12/06 04:06:12;;;;;;;;;;;-20.70;99.90;;;;;;4951624;28;19931;-81
2021/12/06 04:08:40;;;;;;;;;;;-19.40;99.90;;;;;;4951955;29;19966;-85
2021/12/06 04:11:08;;;;;;;;;;;-19.00;99.90;;;;;;4958865;28;19977;-83
2021/12/06 04:13:37;;;;;;;;;;;-19.20;99.90;;;;;;4950866;28;20393;-82
2021/12/06 04:16:06;;;;;;;;;;;-19.20;99.90;;;;;;4951943;29;19974;-83
2021/12/06 04:18:38;;;;;;;;;;;-19.30;99.90;;;;;;4933487;29;19938;-83
2021/12/06 04:21:09;;;;;;;;;;;-19.00;99.90;;;;;;4951542;29;20415;-87
2021/12/06 04:23:38;;;;;;;;;;;-19.40;99.90;;;;;;4953273;29;19938;-87
2021/12/06 04:26:06;;;;;;;;;;;-19.10;99.90;;;;;;4968511;29;20370;-81
2021/12/06 04:28:35;;;;;;;;;;;-19.50;99.90;;;;;;4953286;28;20322;-81
2021/12/06 04:31:05;;;;;;;;;;;-18.70;99.90;;;;;;4951929;29;19930;-80
2021/12/06 04:33:37;;;;;;;;;;;-19.10;99.90;;;;;;4951266;29;19985;-80
2021/12/06 04:36:05;;;;;;;;;;;-19.50;99.90;;;;;;4952293;28;19931;-79
2021/12/06 04:38:34;;;;;;;;;;;-19.30;99.90;;;;;;4952153;29;19937;-80
2021/12/06 04:41:07;;;;;;;;;;;-19.50;99.90;;;;;;4948077;29;19931;-79
2021/12/06 04:43:36;;;;;;;;;;;-18.90;99.90;;;;;;4943381;29;19931;-80
2021/12/06 04:46:13;;;;;;;;;;;-19.10;99.90;;;;;;4959986;28;19935;-78
2021/12/06 04:48:45;;;;;;;;;;;-19.50;99.90;;;;;;4932842;29;20450;-80
2021/12/06 04:51:13;;;;;;;;;;;-19.60;99.90;;;;;;4949393;28;19930;-79
2021/12/06 04:53:44;;;;;;;;;;;-19.30;99.90;;;;;;4949055;29;20408;-86
2021/12/06 04:56:17;;;;;;;;;;;-19.40;99.90;;;;;;4937304;29;19934;-84
2021/12/06 04:58:50;;;;;;;;;;;-19.60;99.90;;;;;;4943411;29;19934;-85
2021/12/06 05:01:24;;;;;;;;;;;-19.90;99.90;;;;;;4946334;28;19934;-92
2021/12/06 05:03:52;;;;;;;;;;;-19.40;99.90;;;;;;4945611;29;20166;-85
2021/12/06 05:06:24;;;;;;;;;;;-18.80;99.90;;;;;;4965865;28;19970;-80
2021/12/06 05:08:57;;;;;;;;;;;-19.60;99.90;;;;;;4947812;28;19934;-80
2021/12/06 05:11:27;;;;;;;;;;;-19.40;99.90;;;;;;4946132;28;19937;-80
2021/12/06 05:13:55;;;;;;;;;;;-19.90;99.90;;;;;;4951054;28;20107;-81
2021/12/06 05:16:33;;;;;;;;;;;-18.00;99.90;;;;;;4922764;29;19931;-83
2021/12/06 05:19:01;;;;;;;;;;;-19.00;99.90;;;;;;4950145;28;19938;-79
2021/12/06 05:21:30;;;;;;;;;;;-19.50;99.90;;;;;;4947166;28;20430;-81
2021/12/06 05:24:03;;;;;;;;;;;-18.20;99.90;;;;;;4951227;28;20442;-81
2021/12/06 05:26:30;;;;;;;;;;;-20.00;99.90;;;;;;4948661;29;19981;-79
2021/12/06 05:29:02;;;;;;;;;;;-18.90;99.90;;;;;;4933747;29;19936;-79
2021/12/06 05:31:30;;;;;;;;;;;-19.10;99.90;;;;;;4933068;29;20056;-80
2021/12/06 05:34:02;;;;;;;;;;;-19.30;99.90;;;;;;4949462;28;20409;-80
2021/12/06 05:36:29;;;;;;;;;;;-19.40;99.90;;;;;;4950440;29;20449;-80
2021/12/06 05:38:58;;;;;;;;;;;-19.20;99.90;;;;;;4952844;28;19938;-78
2021/12/06 05:41:25;;;;;;;;;;;-19.30;99.90;;;;;;4950899;28;19930;-84
2021/12/06 05:43:53;;;;;;;;;;;-19.10;99.90;;;;;;4950144;28;19930;-85
2021/12/06 05:46:20;;;;;;;;;;;-19.30;99.90;;;;;;4948371;28;19937;-83
2021/12/06 05:48:47;;;;;;;;;;;-19.10;99.90;;;;;;4950573;29;20432;-82
2021/12/06 05:51:15;;;;;;;;;;;-19.30;99.90;;;;;;4952303;28;19930;-83
2021/12/06 05:53:42;;;;;;;;;;;-19.20;99.90;;;;;;4951850;28;19969;-82
2021/12/06 05:56:10;;;;;;;;;;;-19.00;99.90;;;;;;4951262;28;20021;-84
2021/12/06 05:58:38;;;;;;;;;;;-19.30;99.90;;;;;;4951608;29;19970;-85
2021/12/06 06:01:06;;;;;;;;;;;-18.80;99.90;;;;;;4951382;29;19931;-85
2021/12/06 06:03:33;;;;;;;;;;;-19.30;99.90;;;;;;4950117;28;20399;-83
2021/12/06 06:06:02;;;;;;;;;;;-19.60;99.90;;;;;;4951234;28;19934;-83
2021/12/06 06:08:29;;;;;;;;;;;-18.70;99.90;;;;;;4947444;28;20025;-83
2021/12/06 06:10:56;;;;;;;;;;;-19.30;99.90;;;;;;4946705;28;20053;-82
2021/12/06 06:13:25;;;;;;;;;;;-20.40;99.90;;;;;;4950906;29;19937;-80
2021/12/06 06:15:54;;;;;;;;;;;-19.40;99.90;;;;;;4948413;28;19966;-80
2021/12/06 06:18:22;;;;;;;;;;;-19.60;99.90;;;;;;4941021;29;19931;-82
2021/12/06 06:20:51;;;;;;;;;;;-19.40;99.90;;;;;;4930327;29;19982;-83
2021/12/06 06:23:18;;;;;;;;;;;-19.40;99.90;;;;;;4940998;29;19931;-83
2021/12/06 06:25:45;;;;;;;;;;;-19.00;99.90;;;;;;4944268;28;19943;-82
2021/12/06 06:28:13;;;;;;;;;;;-19.00;99.90;;;;;;4940397;29;20301;-81
2021/12/06 06:30:42;;;;;;;;;;;-19.30;99.90;;;;;;4941016;29;19938;-81
2021/12/06 06:33:09;;;;;;;;;;;-19.00;99.90;;;;;;4947396;29;20504;-82
2021/12/06 06:35:37;;;;;;;;;;;-19.30;99.90;;;;;;4940581;28;19931;-83
2021/12/06 06:38:04;;;;;;;;;;;-19.10;99.90;;;;;;4946298;28;19930;-82
2021/12/06 06:40:31;;;;;;;;;;;-19.00;99.90;;;;;;4942886;28;20212;-81
2021/12/06 06:42:59;;;;;;;;;;;-18.90;99.90;;;;;;4923028;29;20404;-81
2021/12/06 06:45:27;;;;;;;;;;;-19.00;99.90;;;;;;4941055;28;19938;-81
2021/12/06 06:47:56;;;;;;;;;;;-19.20;99.90;;;;;;4948178;29;19930;-77
2021/12/06 06:50:24;;;;;;;;;;;-19.20;99.90;;;;;;4950410;28;20374;-80
2021/12/06 06:52:52;;;;;;;;;;;-19.10;99.90;;;;;;4952933;28;19931;-81
2021/12/06 06:55:21;;;;;;;;;;;-19.60;99.90;;;;;;4953348;28;19934;-80
2021/12/06 06:57:50;;;;;;;;;;;-18.50;99.90;;;;;;4953763;29;20024;-81
2021/12/06 07:00:21;;;;;;;;;;;-19.40;99.90;;;;;;4948135;28;20245;-79
2021/12/06 07:02:48;;;;;;;;;;;-19.20;99.90;;;;;;4953775;29;19998;-81
2021/12/06 07:05:17;;;;;;;;;;;-18.30;99.90;;;;;;4947070;28;20026;-81
2021/12/06 07:07:44;;;;;;;;;;;-19.00;99.90;;;;;;4941247;29;20032;-79
2021/12/06 07:10:14;;;;;;;;;;;-19.20;99.90;;;;;;4950602;29;19966;-80
2021/12/06 07:12:50;;;;;;;;;;;-19.10;99.90;;;;;;4950186;29;19937;-80
2021/12/06 07:15:19;;;;;;;;;;;-19.30;99.90;;;;;;4928762;28;19930;-81
2021/12/06 07:17:51;;;;;;;;;;;-18.00;99.90;;;;;;4952136;28;20291;-80
2021/12/06 07:20:21;;;;;;;;;;;-18.80;99.90;;;;;;4950260;28;19930;-80
2021/12/06 07:22:52;;;;;;;;;;;-19.10;99.90;;;;;;4952471;28;20394;-82
2021/12/06 07:25:22;;;;;;;;;;;-18.40;99.90;;;;;;4950052;29;19939;-81
2021/12/06 07:27:54;;;;;;;;;;;-19.80;99.90;;;;;;4952769;28;19930;-82
2021/12/06 07:30:25;;;;;;;;;;;-19.10;99.90;;;;;;4950621;28;20072;-82
2021/12/06 07:32:57;;;;;;;;;;;-18.10;99.90;;;;;;4952290;28;20056;-84
2021/12/06 07:35:29;;;;;;;;;;;-18.50;99.90;;;;;;4950771;29;19930;-82
2021/12/06 07:38:02;;;;;;;;;;;-18.10;99.90;;;;;;4950940;28;19938;-83
2021/12/06 07:40:44;;;;;;;;;;;-19.40;99.90;;;;;;4950405;28;20527;-82
2021/12/06 07:46:47;;;;;;;;;;;-18.40;99.90;;;;;;4942618;28;19978;-82
2021/12/06 07:49:45;;;;;;;;;;;;;;;;;;;;;
2021/12/06 07:52:34;;;;;;;;;;;-16.10;99.90;;;;;;4948846;28;19931;-82
2021/12/06 07:55:34;;;;;;;;;;;-17.50;99.90;;;;;;4951503;28;19930;-82
2021/12/06 07:58:14;;;;;;;;;;;-16.30;99.90;;;;;;4950556;29;19931;-80
2021/12/06 08:00:55;;;;;;;;;;;-17.80;99.90;;;;;;4950118;28;19938;-80
2021/12/06 08:03:50;;;;;;;;;;;-17.20;99.90;;;;;;4924436;29;19931;-82
2021/12/06 08:10:19;;;;;;;;;;;-17.50;99.90;;;;;;4890656;29;19931;-81
2021/12/06 08:13:13;;;;;;;;;;;;;;;;;;;;;
2021/12/06 08:16:16;;;;;;;;;;;-16.00;99.90;;;;;;4944688;28;20017;-81
2021/12/06 08:19:26;;;;;;;;;;;-15.90;99.90;;;;;;4916595;28;19934;-80
2021/12/06 08:22:01;;;;;;;;;;;-16.90;99.90;;;;;;4942218;29;19930;-83
2021/12/06 08:24:49;;;;;;;;;;;-16.60;99.90;;;;;;4941250;29;19931;-80
2021/12/06 08:27:26;;;;;;;;;;;-16.20;99.90;;;;;;4939166;29;19974;-81
2021/12/06 08:29:53;;;;;;;;;;;-16.00;99.90;;;;;;4946062;29;19997;-82
2021/12/06 08:32:20;;;;;;;;;;;-16.20;99.90;;;;;;4946688;28;19942;-81
2021/12/06 08:34:49;;;;;;;;;;;-16.20;99.90;;;;;;4940128;28;19938;-81
2021/12/06 08:37:16;;;;;;;;;;;-16.80;99.90;;;;;;4939436;28;20378;-81
2021/12/06 08:39:44;;;;;;;;;;;-16.90;99.90;;;;;;4922065;29;19977;-81
2021/12/06 08:42:11;;;;;;;;;;;-16.10;99.90;;;;;;4947578;28;19931;-81
2021/12/06 08:44:38;;;;;;;;;;;-15.00;99.90;;;;;;4949539;28;19937;-82
2021/12/06 08:47:05;;;;;;;;;;;-16.60;99.90;;;;;;4950160;28;19980;-83
2021/12/06 08:49:33;;;;;;;;;;;-16.50;99.90;;;;;;4949634;28;19936;-80
2021/12/06 08:52:03;;;;;;;;;;;-16.10;99.90;;;;;;4951050;28;19939;-83
2021/12/06 08:54:30;;;;;;;;;;;-16.30;99.90;;;;;;4945087;29;19968;-83
2021/12/06 08:56:59;;;;;;;;;;;-16.30;99.90;;;;;;4950509;28;19953;-82
2021/12/06 08:59:26;;;;;;;;;;;-15.70;99.90;;;;;;4950336;28;19977;-83
2021/12/06 09:01:56;;;;;;;;;;;-15.90;99.90;;;;;;4948846;28;20026;-82
2021/12/06 09:04:24;;;;;;;;;;;-16.20;99.90;;;;;;4950392;28;19930;-82
2021/12/06 09:06:53;;;;;;;;;;;-16.30;99.90;;;;;;4951772;28;20394;-82
2021/12/06 09:09:22;;;;;;;;;;;-16.50;99.90;;;;;;4957465;28;19981;-81
2021/12/06 09:11:51;;;;;;;;;;;-16.50;99.90;;;;;;4952817;28;19930;-84
2021/12/06 09:14:18;;;;;;;;;;;-16.40;99.90;;;;;;4955333;29;19931;-83
2021/12/06 09:16:46;;;;;;;;;;;-16.20;99.90;;;;;;4949151;28;19974;-84
2021/12/06 09:19:15;;;;;;;;;;;-16.10;99.90;;;;;;4951032;28;19930;-83
2021/12/06 09:21:44;;;;;;;;;;;-15.90;99.90;;;;;;4950777;28;19935;-83
2021/12/06 09:24:16;;;;;;;;;;;-14.80;99.90;;;;;;4952874;28;19939;-87
2021/12/06 09:26:46;;;;;;;;;;;-13.60;99.90;;;;;;4953253;28;20402;-87
2021/12/06 09:29:13;;;;;;;;;;;-15.60;99.90;;;;;;4949642;29;20287;-86
2021/12/06 09:31:42;;;;;;;;;;;-15.20;99.90;;;;;;4951092;28;19938;-86
2021/12/06 09:34:09;;;;;;;;;;;-15.90;99.90;;;;;;4941657;28;19930;-85
2021/12/06 09:36:36;;;;;;;;;;;-15.30;99.90;;;;;;4951960;28;19977;-87
2021/12/06 09:39:05;;;;;;;;;;;-14.90;99.90;;;;;;4950027;29;19934;-85
2021/12/06 09:41:33;;;;;;;;;;;-15.60;99.90;;;;;;4952242;28;20489;-88
2021/12/06 09:44:04;;;;;;;;;;;-15.40;99.90;;;;;;4954046;28;19934;-87
2021/12/06 09:46:35;;;;;;;;;;;-15.00;99.90;;;;;;4951219;28;20018;-85
2021/12/06 09:49:05;;;;;;;;;;;-15.50;99.90;;;;;;4951822;28;20042;-85
2021/12/06 09:51:33;;;;;;;;;;;-15.60;99.90;;;;;;4949448;29;19993;-84
2021/12/06 09:54:01;;;;;;;;;;;-16.10;99.90;;;;;;4950937;29;19962;-86
2021/12/06 09:56:31;;;;;;;;;;;-15.30;99.90;;;;;;4951292;28;21100;-82
2021/12/06 09:59:00;;;;;;;;;;;-15.20;99.90;;;;;;4949609;29;19985;-82
2021/12/06 10:01:33;;;;;;;;;;;-16.10;99.90;;;;;;4949894;28;19930;-82
2021/12/06 10:04:02;;;;;;;;;;;-15.50;99.90;;;;;;4950289;29;20015;-82
2021/12/06 10:06:30;;;;;;;;;;;-15.40;99.90;;;;;;4950055;28;20421;-82
2021/12/06 10:08:58;;;;;;;;;;;-15.10;99.90;;;;;;4949652;28;19969;-82
2021/12/06 10:11:27;;;;;;;;;;;-15.30;99.90;;;;;;4950885;28;19969;-83
2021/12/06 10:13:56;;;;;;;;;;;-15.90;99.90;;;;;;4950256;28;19931;-81
2021/12/06 10:19:16;;;;;;;;;;;-15.80;99.90;;;;;;4946285;29;19958;-81
2021/12/06 10:21:44;;;;;;;;;;;-15.30;99.90;;;;;;4950805;28;19930;-82
2021/12/06 10:24:13;;;;;;;;;;;-15.00;99.90;;;;;;4950937;28;19934;-83
2021/12/06 10:26:41;;;;;;;;;;;-15.40;99.90;;;;;;4948196;28;19934;-82
2021/12/06 10:29:11;;;;;;;;;;;-14.90;99.90;;;;;;4952507;29;20201;-81
2021/12/06 10:31:41;;;;;;;;;;;-14.30;99.90;;;;;;4948859;28;20471;-83
2021/12/06 10:34:09;;;;;;;;;;;-15.30;99.90;;;;;;4947687;29;20391;-83
2021/12/06 10:36:38;;;;;;;;;;;-15.10;99.90;;;;;;4952656;28;20336;-84
2021/12/06 10:39:07;;;;;;;;;;;-15.10;99.90;;;;;;4956175;28;20302;-84
2021/12/06 10:41:36;;;;;;;;;;;-15.00;99.90;;;;;;4952693;29;19937;-82
2021/12/06 10:44:09;;;;;;;;;;;-12.90;99.90;;;;;;4952905;29;19930;-82
2021/12/06 10:46:38;;;;;;;;;;;-14.60;99.90;;;;;;4936515;29;20034;-82
2021/12/06 10:49:09;;;;;;;;;;;-14.40;99.90;;;;;;4952579;28;19930;-83
2021/12/06 10:51:39;;;;;;;;;;;-15.70;99.90;;;;;;4952512;28;20024;-82
2021/12/06 10:54:13;;;;;;;;;;;-15.20;99.90;;;;;;4952541;29;20006;-82
2021/12/06 10:56:44;;;;;;;;;;;-14.40;99.90;;;;;;4952529;28;19930;-84
2021/12/06 10:59:13;;;;;;;;;;;-12.60;99.90;;;;;;4952823;28;19958;-81
2021/12/06 11:01:41;;;;;;;;;;;-14.10;99.90;;;;;;4953165;28;19942;-81
2021/12/06 11:04:11;;;;;;;;;;;-14.00;99.90;;;;;;4954761;29;19930;-83
2021/12/06 11:06:43;;;;;;;;;;;-12.50;99.90;;;;;;4951776;28;19977;-83
2021/12/06 11:09:13;;;;;;;;;;;-14.50;99.90;;;;;;4950009;29;19931;-83
2021/12/06 11:11:44;;;;;;;;;;;-14.30;99.90;;;;;;4953452;29;19966;-85
2021/12/06 11:14:15;;;;;;;;;;;-14.50;99.90;;;;;;4953637;28;19930;-85
2021/12/06 11:16:45;;;;;;;;;;;-15.50;99.90;;;;;;4951822;28;19934;-86
2021/12/06 11:19:15;;;;;;;;;;;-12.00;99.90;;;;;;4954084;28;19930;-87
2021/12/06 11:21:54;;;;;;;;;;;-14.10;99.90;;;;;;4951673;28;19930;-86
2021/12/06 11:24:28;;;;;;;;;;;-14.20;99.90;;;;;;4936799;29;19930;-86
2021/12/06 11:27:01;;;;;;;;;;;-14.10;99.90;;;;;;4937021;29;20370;-84
2021/12/06 11:29:36;;;;;;;;;;;-16.50;99.90;;;;;;4952731;29;19937;-86
2021/12/06 11:32:10;;;;;;;;;;;-13.70;99.90;;;;;;4954035;28;19989;-85
2021/12/06 11:34:40;;;;;;;;;;;-14.20;99.90;;;;;;4945414;29;19937;-85
2021/12/06 11:37:17;;;;;;;;;;;-13.60;99.90;;;;;;4947749;29;19930;-88
2021/12/06 11:39:46;;;;;;;;;;;-13.90;99.90;;;;;;4951145;28;19930;-86
2021/12/06 11:42:15;;;;;;;;;;;-15.60;99.90;;;;;;4937087;29;20005;-85
2021/12/06 11:44:47;;;;;;;;;;;-14.10;99.90;;;;;;4954777;28;19985;-87
2021/12/06 11:47:20;;;;;;;;;;;-14.70;99.90;;;;;;4950625;29;19973;-87
2021/12/06 11:49:52;;;;;;;;;;;-15.40;99.90;;;;;;4949247;29;19958;-87
2021/12/06 11:55:10;;;;;;;;;;;-14.60;99.90;;;;;;4975078;28;19931;-91
2021/12/06 11:57:41;;;;;;;;;;;-13.90;99.90;;;;;;4937480;29;20061;-90
2021/12/06 12:00:12;;;;;;;;;;;-13.90;99.90;;;;;;4945206;28;20422;-89
2021/12/06 12:02:46;;;;;;;;;;;-14.30;99.90;;;;;;4920005;29;19931;-88
2021/12/06 12:05:25;;;;;;;;;;;-14.70;99.90;;;;;;4938131;29;20001;-88
2021/12/06 12:08:06;;;;;;;;;;;-14.70;99.90;;;;;;4933840;29;19931;-87
2021/12/06 12:10:41;;;;;;;;;;;-13.80;99.90;;;;;;4962322;28;19931;-87
2021/12/06 12:13:10;;;;;;;;;;;-13.90;99.90;;;;;;4923006;29;19970;-88
2021/12/06 12:15:38;;;;;;;;;;;-12.10;99.90;;;;;;4934961;29;19970;-91
2021/12/06 12:18:07;;;;;;;;;;;-13.90;99.90;;;;;;4936823;29;19930;-89
2021/12/06 12:20:36;;;;;;;;;;;-14.00;99.90;;;;;;4924107;29;20072;-89
2021/12/06 12:23:09;;;;;;;;;;;-14.10;99.90;;;;;;4962860;28;19934;-90
2021/12/06 12:25:48;;;;;;;;;;;-13.50;99.90;;;;;;4935356;29;19998;-88
2021/12/06 12:28:21;;;;;;;;;;;-13.40;99.90;;;;;;4935892;29;19962;-86
2021/12/06 12:30:52;;;;;;;;;;;-13.20;99.90;;;;;;4921130;29;19974;-89
2021/12/06 12:33:25;;;;;;;;;;;-12.50;99.90;;;;;;4931328;29;19935;-86
2021/12/06 12:35:56;;;;;;;;;;;-13.90;99.90;;;;;;4930400;29;19959;-87
2021/12/06 12:38:27;;;;;;;;;;;-13.90;99.90;;;;;;4916462;29;19931;-87
2021/12/06 12:41:00;;;;;;;;;;;-14.00;99.90;;;;;;4963157;28;20025;-87
2021/12/06 12:43:35;;;;;;;;;;;-14.20;99.90;;;;;;4933527;29;19985;-87
2021/12/06 12:46:06;;;;;;;;;;;-14.90;99.90;;;;;;4933234;29;19930;-84
2021/12/06 12:48:47;;;;;;;;;;;-13.90;99.90;;;;;;4932795;29;20043;-85
2021/12/06 12:51:17;;;;;;;;;;;-14.80;99.90;;;;;;4930263;29;20029;-84
2021/12/06 12:53:49;;;;;;;;;;;-13.40;99.90;;;;;;4930097;29;19930;-84
2021/12/06 12:56:22;;;;;;;;;;;-14.20;99.90;;;;;;4932451;29;19930;-81
2021/12/06 12:58:51;;;;;;;;;;;-14.20;99.90;;;;;;4929651;29;19930;-82
2021/12/06 13:01:24;;;;;;;;;;;-13.70;99.90;;;;;;4914299;29;19986;-81
2021/12/06 13:03:54;;;;;;;;;;;-14.10;99.90;;;;;;4932476;29;20033;-82
2021/12/06 13:06:25;;;;;;;;;;;-14.00;99.90;;;;;;4928620;29;19931;-80
2021/12/06 13:08:57;;;;;;;;;;;-14.30;99.90;;;;;;4930459;29;20311;-80
2021/12/06 13:11:31;;;;;;;;;;;-14.30;99.90;;;;;;4928858;29;20033;-80
2021/12/06 13:13:59;;;;;;;;;;;-14.00;99.90;;;;;;4932253;29;20375;-80
2021/12/06 13:16:38;;;;;;;;;;;-14.10;99.90;;;;;;4928390;29;19937;-80
2021/12/06 13:19:13;;;;;;;;;;;-13.90;99.90;;;;;;4911939;29;20306;-82
2021/12/06 13:21:48;;;;;;;;;;;-13.30;99.90;;;;;;4929415;29;20033;-81
2021/12/06 13:24:33;;;;;;;;;;;-13.90;99.90;;;;;;4929245;29;19934;-83
2021/12/06 13:27:07;;;;;;;;;;;-14.00;99.90;;;;;;4929903;29;19937;-85
2021/12/06 13:29:44;;;;;;;;;;;-14.10;99.90;;;;;;4927734;29;19935;-84
2021/12/06 13:32:36;;;;;;;;;;;-14.00;99.90;;;;;;4945555;29;20363;-86
2021/12/06 13:35:52;;;;;;;;;;;-14.40;99.90;;;;;;4932872;29;19931;-84
2021/12/06 13:38:28;;;;;;;;;;;-13.70;99.90;;;;;;4890244;29;20389;-86
2021/12/06 13:41:22;;;;;;;;;;;-13.70;99.90;;;;;;4933866;29;19931;-86
2021/12/06 13:43:56;;;;;;;;;;;-13.60;99.90;;;;;;4919740;29;19942;-83
2021/12/06 13:46:36;;;;;;;;;;;-13.10;99.90;;;;;;4929068;29;19941;-86
2021/12/06 13:49:14;;;;;;;;;;;-12.80;99.90;;;;;;4929799;29;19937;-82
2021/12/06 13:51:46;;;;;;;;;;;-13.10;99.90;;;;;;4932325;29;19930;-88
2021/12/06 13:54:20;;;;;;;;;;;-15.40;99.90;;;;;;4964121;28;20002;-90
2021/12/06 13:56:56;;;;;;;;;;;-13.90;99.90;;;;;;4970438;28;19993;-82
2021/12/06 13:59:28;;;;;;;;;;;-14.10;99.90;;;;;;4932322;29;19974;-84
2021/12/06 14:02:02;;;;;;;;;;;-14.20;99.90;;;;;;4939299;28;20310;-85
2021/12/06 14:04:33;;;;;;;;;;;-14.40;99.90;;;;;;4920503;29;19938;-85
2021/12/06 14:07:05;;;;;;;;;;;-12.30;99.90;;;;;;4934789;29;19938;-87
2021/12/06 14:09:35;;;;;;;;;;;-13.80;99.90;;;;;;4931011;29;19930;-86
2021/12/06 14:12:18;;;;;;;;;;;-14.10;99.90;;;;;;4932032;29;19970;-86
2021/12/06 14:14:49;;;;;;;;;;;-13.60;99.90;;;;;;4947274;28;20434;-85
2021/12/06 14:17:19;;;;;;;;;;;-12.00;99.90;;;;;;4930801;29;19938;-84
2021/12/06 14:19:49;;;;;;;;;;;-12.30;99.90;;;;;;4916679;29;19931;-85
2021/12/06 14:22:19;;;;;;;;;;;-12.80;99.90;;;;;;4915012;29;19931;-87
2021/12/06 14:24:47;;;;;;;;;;;-13.30;99.90;;;;;;4924932;29;19931;-86
2021/12/06 14:27:18;;;;;;;;;;;-13.90;99.90;;;;;;4945469;28;19938;-85
2021/12/06 14:29:55;;;;;;;;;;;-13.80;99.90;;;;;;4928642;29;20302;-87
2021/12/06 14:32:26;;;;;;;;;;;-12.20;99.90;;;;;;4926761;29;20045;-87
2021/12/06 14:34:57;;;;;;;;;;;-14.20;99.90;;;;;;4922905;29;19931;-84
2021/12/06 14:37:28;;;;;;;;;;;-13.70;99.90;;;;;;4955732;28;19946;-88
2021/12/06 14:39:58;;;;;;;;;;;-15.20;99.90;;;;;;4932503;29;20381;-85
2021/12/06 14:42:29;;;;;;;;;;;-14.40;99.90;;;;;;4935030;28;19934;-84
2021/12/06 14:44:58;;;;;;;;;;;-14.70;99.90;;;;;;4926937;29;19930;-83
2021/12/06 14:47:31;;;;;;;;;;;-14.30;99.90;;;;;;4951756;28;19970;-83
2021/12/06 14:50:01;;;;;;;;;;;-11.90;99.90;;;;;;4934916;29;19931;-85